sensor_id;sensor_type;location;lat;lon;timestamp;temperature;humidity
5055;DHT22;13829;48.990;8.346;2023-03-26T00:01:02;9.80;99.90
5055;DHT22;13829;48.990;8.346;2023-03-26T00:03:33;9.90;99.90
5055;DHT22;13829;48.990;8.346;2023-03-26T00:06:01;9.90;99.90
5055;DHT22;13829;48.990;8.346;2023-03-26T00:08:30;9.90;99.90
5055;DHT22;13829;48.990;8.346;2023-03-26T00:10:57;9.90;99.90
5055;DHT22;13829;48.990;8.346;2023-03-26T00:13:24;9.90;99.90
5055;DHT22;13829;48.990;8.346;2023-03-26T00:15:51;9.90;99.90
5055;DHT22;13829;48.990;8.346;2023-03-26T00:18:19;9.80;99.90
5055;DHT22;13829;48.990;8.346;2023-03-26T00:20:49;9.70;99.90
5055;DHT22;13829;48.990;8.346;2023-03-26T00:23:16;9.60;99.90
5055;DHT22;13829;48.990;8.346;2023-03-26T00:25:43;9.60;99.90
5055;DHT22;13829;48.990;8.346;2023-03-26T00:28:15;9.50;99.90
5055;DHT22;13829;48.990;8.346;2023-03-26T00:30:46;9.50;99.90
5055;DHT22;13829;48.990;8.346;2023-03-26T00:33:13;9.50;99.90
5055;DHT22;13829;48.990;8.346;2023-03-26T00:35:43;9.50;99.90
5055;DHT22;13829;48.990;8.346;2023-03-26T00:38:12;9.50;99.90
5055;DHT22;13829;48.990;8.346;2023-03-26T00:40:40;9.50;99.90
5055;DHT22;13829;48.990;8.346;2023-03-26T00:43:09;9.60;99.90
5055;DHT22;13829;48.990;8.346;2023-03-26T00:45:43;9.60;99.90
5055;DHT22;13829;48.990;8.346;2023-03-26T00:48:11;9.60;99.90
5055;DHT22;13829;48.990;8.346;2023-03-26T00:50:38;9.70;99.90
5055;DHT22;13829;48.990;8.346;2023-03-26T00:53:07;9.70;99.90
5055;DHT22;13829;48.990;8.346;2023-03-26T00:55:36;9.70;99.90
5055;DHT22;13829;48.990;8.346;2023-03-26T00:58:05;9.80;99.90
5055;DHT22;13829;48.990;8.346;2023-03-26T01:00:35;9.70;99.90
5055;DHT22;13829;48.990;8.346;2023-03-26T01:03:05;9.70;99.90
5055;DHT22;13829;48.990;8.346;2023-03-26T01:05:47;9.70;99.90
5055;DHT22;13829;48.990;8.346;2023-03-26T01:08:25;9.80;99.90
5055;DHT22;13829;48.990;8.346;2023-03-26T01:10:56;9.70;99.90
5055;DHT22;13829;48.990;8.346;2023-03-26T01:13:32;9.70;99.90
5055;DHT22;13829;48.990;8.346;2023-03-26T01:16:01;9.70;99.90
5055;DHT22;13829;48.990;8.346;2023-03-26T01:18:31;9.70;99.90
5055;DHT22;13829;48.990;8.346;2023-03-26T01:21:06;9.60;99.90
5055;DHT22;13829;48.990;8.346;2023-03-26T01:23:43;9.60;99.90
5055;DHT22;13829;48.990;8.346;2023-03-26T01:26:24;9.50;99.90
5055;DHT22;13829;48.990;8.346;2023-03-26T01:29:03;9.40;99.90
5055;DHT22;13829;48.990;8.346;2023-03-26T01:31:38;9.40;99.90
5055;DHT22;13829;48.990;8.346;2023-03-26T01:34:17;9.40;99.90
5055;DHT22;13829;48.990;8.346;2023-03-26T01:36:58;9.40;99.90
5055;DHT22;13829;48.990;8.346;2023-03-26T01:39:36;9.40;99.90
5055;DHT22;13829;48.990;8.346;2023-03-26T01:42:20;9.40;99.90
5055;DHT22;13829;48.990;8.346;2023-03-26T01:44:58;9.40;99.90
5055;DHT22;13829;48.990;8.346;2023-03-26T01:47:33;9.40;99.90
5055;DHT22;13829;48.990;8.346;2023-03-26T01:50:04;9.40;99.90
5055;DHT22;13829;48.990;8.346;2023-03-26T01:52:31;9.50;99.90
5055;DHT22;13829;48.990;8.346;2023-03-26T01:54:59;9.50;99.90
5055;DHT22;13829;48.990;8.346;2023-03-26T01:57:34;9.50;99.90
5055;DHT22;13829;48.990;8.346;2023-03-26T02:00:18;9.50;99.90
5055;DHT22;13829;48.990;8.346;2023-03-26T02:03:08;9.40;99.90
5055;DHT22;13829;48.990;8.346;2023-03-26T02:05:51;9.40;99.90
5055;DHT22;13829;48.990;8.346;2023-03-26T02:08:26;9.40;99.90
5055;DHT22;13829;48.990;8.346;2023-03-26T02:11:01;9.30;99.90
5055;DHT22;13829;48.990;8.346;2023-03-26T02:13:37;9.30;99.90
5055;DHT22;13829;48.990;8.346;2023-03-26T02:16:07;9.20;99.90
5055;DHT22;13829;48.990;8.346;2023-03-26T02:18:36;9.20;99.90
5055;DHT22;13829;48.990;8.346;2023-03-26T02:21:05;9.20;99.90
5055;DHT22;13829;48.990;8.346;2023-03-26T02:23:35;9.30;99.90
5055;DHT22;13829;48.990;8.346;2023-03-26T02:26:05;9.00;99.90
5055;DHT22;13829;48.990;8.346;2023-03-26T02:28:33;9.10;99.90
5055;DHT22;13829;48.990;8.346;2023-03-26T02:31:02;9.10;99.90
5055;DHT22;13829;48.990;8.346;2023-03-26T02:33:30;9.00;99.90
5055;DHT22;13829;48.990;8.346;2023-03-26T02:35:58;8.90;99.90
5055;DHT22;13829;48.990;8.346;2023-03-26T02:38:26;8.90;99.90
5055;DHT22;13829;48.990;8.346;2023-03-26T02:40:54;8.90;99.90
5055;DHT22;13829;48.990;8.346;2023-03-26T02:43:21;8.80;99.90
5055;DHT22;13829;48.990;8.346;2023-03-26T02:45:48;8.80;99.90
5055;DHT22;13829;48.990;8.346;2023-03-26T02:48:17;8.80;99.90
5055;DHT22;13829;48.990;8.346;2023-03-26T02:50:45;8.80;99.90
5055;DHT22;13829;48.990;8.346;2023-03-26T02:53:14;8.70;99.90
5055;DHT22;13829;48.990;8.346;2023-03-26T02:55:41;8.70;99.90
5055;DHT22;13829;48.990;8.346;2023-03-26T02:58:08;8.70;99.90
5055;DHT22;13829;48.990;8.346;2023-03-26T03:00:36;8.70;99.90
5055;DHT22;13829;48.990;8.346;2023-03-26T03:03:03;8.70;99.90
5055;DHT22;13829;48.990;8.346;2023-03-26T03:05:32;8.70;99.90
5055;DHT22;13829;48.990;8.346;2023-03-26T03:07:59;8.70;99.90
5055;DHT22;13829;48.990;8.346;2023-03-26T03:10:28;8.80;99.90
5055;DHT22;13829;48.990;8.346;2023-03-26T03:12:58;8.80;99.90
5055;DHT22;13829;48.990;8.346;2023-03-26T03:15:25;8.90;99.90
5055;DHT22;13829;48.990;8.346;2023-03-26T03:17:52;8.90;99.90
5055;DHT22;13829;48.990;8.346;2023-03-26T03:20:19;9.10;99.90
5055;DHT22;13829;48.990;8.346;2023-03-26T03:22:47;9.00;99.90
5055;DHT22;13829;48.990;8.346;2023-03-26T03:25:14;9.00;99.90
5055;DHT22;13829;48.990;8.346;2023-03-26T03:27:42;9.00;99.90
5055;DHT22;13829;48.990;8.346;2023-03-26T03:30:12;9.10;99.90
5055;DHT22;13829;48.990;8.346;2023-03-26T03:32:39;9.10;99.90
5055;DHT22;13829;48.990;8.346;2023-03-26T03:35:07;9.20;99.90
5055;DHT22;13829;48.990;8.346;2023-03-26T03:37:34;9.30;99.90
5055;DHT22;13829;48.990;8.346;2023-03-26T03:40:03;9.30;99.90
5055;DHT22;13829;48.990;8.346;2023-03-26T03:42:32;9.30;99.90
5055;DHT22;13829;48.990;8.346;2023-03-26T03:44:59;9.30;99.90
5055;DHT22;13829;48.990;8.346;2023-03-26T03:47:26;9.30;99.90
5055;DHT22;13829;48.990;8.346;2023-03-26T03:49:53;9.30;99.90
5055;DHT22;13829;48.990;8.346;2023-03-26T03:52:21;9.30;99.90
5055;DHT22;13829;48.990;8.346;2023-03-26T03:54:48;9.30;99.90
5055;DHT22;13829;48.990;8.346;2023-03-26T03:57:16;9.30;99.90
5055;DHT22;13829;48.990;8.346;2023-03-26T03:59:46;9.30;99.90
5055;DHT22;13829;48.990;8.346;2023-03-26T04:02:14;9.30;99.90
5055;DHT22;13829;48.990;8.346;2023-03-26T04:04:45;9.30;99.90
5055;DHT22;13829;48.990;8.346;2023-03-26T04:07:14;9.20;99.90
5055;DHT22;13829;48.990;8.346;2023-03-26T04:09:41;9.20;99.90
5055;DHT22;13829;48.990;8.346;2023-03-26T04:12:08;9.20;99.90
5055;DHT22;13829;48.990;8.346;2023-03-26T04:14:36;9.10;99.90
5055;DHT22;13829;48.990;8.346;2023-03-26T04:17:03;9.10;99.90
5055;DHT22;13829;48.990;8.346;2023-03-26T04:19:30;9.20;99.90
5055;DHT22;13829;48.990;8.346;2023-03-26T04:21:57;9.20;99.90
5055;DHT22;13829;48.990;8.346;2023-03-26T04:24:27;9.00;99.90
5055;DHT22;13829;48.990;8.346;2023-03-26T04:26:55;9.20;99.90
5055;DHT22;13829;48.990;8.346;2023-03-26T04:29:25;9.20;99.90
5055;DHT22;13829;48.990;8.346;2023-03-26T04:31:57;9.20;99.90
5055;DHT22;13829;48.990;8.346;2023-03-26T04:34:32;9.20;99.90
5055;DHT22;13829;48.990;8.346;2023-03-26T04:37:00;9.30;99.90
5055;DHT22;13829;48.990;8.346;2023-03-26T04:39:28;9.10;99.90
5055;DHT22;13829;48.990;8.346;2023-03-26T04:41:55;9.20;99.90
5055;DHT22;13829;48.990;8.346;2023-03-26T04:44:23;9.20;99.90
5055;DHT22;13829;48.990;8.346;2023-03-26T04:46:50;9.10;99.90
5055;DHT22;13829;48.990;8.346;2023-03-26T04:49:20;9.10;99.90
5055;DHT22;13829;48.990;8.346;2023-03-26T04:51:47;9.10;99.90
5055;DHT22;13829;48.990;8.346;2023-03-26T04:54:15;9.10;99.90
5055;DHT22;13829;48.990;8.346;2023-03-26T04:56:49;9.10;99.90
5055;DHT22;13829;48.990;8.346;2023-03-26T04:59:22;9.10;99.90
5055;DHT22;13829;48.990;8.346;2023-03-26T05:01:55;9.10;99.90
5055;DHT22;13829;48.990;8.346;2023-03-26T05:04:26;9.10;99.90
5055;DHT22;13829;48.990;8.346;2023-03-26T05:06:55;9.00;99.90
5055;DHT22;13829;48.990;8.346;2023-03-26T05:09:23;8.90;99.90
5055;DHT22;13829;48.990;8.346;2023-03-26T05:11:50;8.80;99.90
5055;DHT22;13829;48.990;8.346;2023-03-26T05:14:18;9.10;99.90
5055;DHT22;13829;48.990;8.346;2023-03-26T05:16:47;9.10;99.90
5055;DHT22;13829;48.990;8.346;2023-03-26T05:19:15;9.20;99.90
5055;DHT22;13829;48.990;8.346;2023-03-26T05:21:43;9.20;99.90
5055;DHT22;13829;48.990;8.346;2023-03-26T05:24:10;9.20;99.90
5055;DHT22;13829;48.990;8.346;2023-03-26T05:26:37;9.30;99.90
5055;DHT22;13829;48.990;8.346;2023-03-26T05:29:04;9.30;99.90
5055;DHT22;13829;48.990;8.346;2023-03-26T05:31:31;9.30;99.90
5055;DHT22;13829;48.990;8.346;2023-03-26T05:33:58;9.40;99.90
5055;DHT22;13829;48.990;8.346;2023-03-26T05:36:26;9.30;99.90
5055;DHT22;13829;48.990;8.346;2023-03-26T05:38:54;9.40;99.90
5055;DHT22;13829;48.990;8.346;2023-03-26T05:41:21;9.40;99.90
5055;DHT22;13829;48.990;8.346;2023-03-26T05:43:48;9.40;99.90
5055;DHT22;13829;48.990;8.346;2023-03-26T05:46:15;9.40;99.90
5055;DHT22;13829;48.990;8.346;2023-03-26T05:48:44;9.60;99.90
5055;DHT22;13829;48.990;8.346;2023-03-26T05:51:13;9.40;99.90
5055;DHT22;13829;48.990;8.346;2023-03-26T05:53:40;9.50;99.90
5055;DHT22;13829;48.990;8.346;2023-03-26T05:56:09;9.50;99.90
5055;DHT22;13829;48.990;8.346;2023-03-26T05:58:37;9.70;99.90
5055;DHT22;13829;48.990;8.346;2023-03-26T06:01:06;9.60;99.90
5055;DHT22;13829;48.990;8.346;2023-03-26T06:03:37;9.60;99.90
5055;DHT22;13829;48.990;8.346;2023-03-26T06:06:06;9.70;99.90
5055;DHT22;13829;48.990;8.346;2023-03-26T06:08:34;9.80;99.90
5055;DHT22;13829;48.990;8.346;2023-03-26T06:11:03;9.80;99.90
5055;DHT22;13829;48.990;8.346;2023-03-26T06:13:33;9.70;99.90
5055;DHT22;13829;48.990;8.346;2023-03-26T06:16:00;9.80;99.90
5055;DHT22;13829;48.990;8.346;2023-03-26T06:18:27;9.60;99.90
5055;DHT22;13829;48.990;8.346;2023-03-26T06:20:54;9.90;99.90
5055;DHT22;13829;48.990;8.346;2023-03-26T06:23:21;10.00;99.90
5055;DHT22;13829;48.990;8.346;2023-03-26T06:25:48;10.10;99.90
5055;DHT22;13829;48.990;8.346;2023-03-26T06:28:15;10.20;99.90
5055;DHT22;13829;48.990;8.346;2023-03-26T06:30:44;10.20;99.90
5055;DHT22;13829;48.990;8.346;2023-03-26T06:33:11;10.20;99.90
5055;DHT22;13829;48.990;8.346;2023-03-26T06:35:38;10.10;99.90
5055;DHT22;13829;48.990;8.346;2023-03-26T06:38:05;10.10;99.90
5055;DHT22;13829;48.990;8.346;2023-03-26T06:40:32;10.00;99.90
5055;DHT22;13829;48.990;8.346;2023-03-26T06:42:59;10.10;99.90
5055;DHT22;13829;48.990;8.346;2023-03-26T06:45:27;10.10;99.90
5055;DHT22;13829;48.990;8.346;2023-03-26T06:47:55;10.20;99.90
5055;DHT22;13829;48.990;8.346;2023-03-26T06:50:22;10.20;99.90
5055;DHT22;13829;48.990;8.346;2023-03-26T06:52:52;10.20;99.90
5055;DHT22;13829;48.990;8.346;2023-03-26T06:55:19;10.10;99.90
5055;DHT22;13829;48.990;8.346;2023-03-26T06:57:47;10.10;99.90
5055;DHT22;13829;48.990;8.346;2023-03-26T07:00:15;10.20;99.90
5055;DHT22;13829;48.990;8.346;2023-03-26T07:02:43;10.30;99.90
5055;DHT22;13829;48.990;8.346;2023-03-26T07:05:11;10.20;99.90
5055;DHT22;13829;48.990;8.346;2023-03-26T07:07:39;10.20;99.90
5055;DHT22;13829;48.990;8.346;2023-03-26T07:10:07;10.20;99.90
5055;DHT22;13829;48.990;8.346;2023-03-26T07:12:34;10.30;99.90
5055;DHT22;13829;48.990;8.346;2023-03-26T07:15:02;10.20;99.90
5055;DHT22;13829;48.990;8.346;2023-03-26T07:17:30;10.20;99.90
5055;DHT22;13829;48.990;8.346;2023-03-26T07:19:57;10.20;99.90
5055;DHT22;13829;48.990;8.346;2023-03-26T07:22:27;10.20;99.90
5055;DHT22;13829;48.990;8.346;2023-03-26T07:24:55;10.20;99.90
5055;DHT22;13829;48.990;8.346;2023-03-26T07:27:35;10.10;99.90
5055;DHT22;13829;48.990;8.346;2023-03-26T07:30:12;10.10;99.90
5055;DHT22;13829;48.990;8.346;2023-03-26T07:32:48;10.00;99.90
5055;DHT22;13829;48.990;8.346;2023-03-26T07:35:23;10.10;99.90
5055;DHT22;13829;48.990;8.346;2023-03-26T07:38:20;10.20;99.90
5055;DHT22;13829;48.990;8.346;2023-03-26T07:41:03;10.10;99.90
5055;DHT22;13829;48.990;8.346;2023-03-26T07:43:53;9.90;99.90
5055;DHT22;13829;48.990;8.346;2023-03-26T07:46:31;9.90;99.90
5055;DHT22;13829;48.990;8.346;2023-03-26T07:49:01;9.90;99.90
5055;DHT22;13829;48.990;8.346;2023-03-26T07:51:30;9.80;99.90
5055;DHT22;13829;48.990;8.346;2023-03-26T07:54:00;9.80;99.90
5055;DHT22;13829;48.990;8.346;2023-03-26T07:56:33;9.80;99.90
5055;DHT22;13829;48.990;8.346;2023-03-26T07:59:11;9.70;99.90
5055;DHT22;13829;48.990;8.346;2023-03-26T08:01:55;9.70;99.90
5055;DHT22;13829;48.990;8.346;2023-03-26T08:04:47;9.60;99.90
5055;DHT22;13829;48.990;8.346;2023-03-26T08:07:32;9.70;99.90
5055;DHT22;13829;48.990;8.346;2023-03-26T08:10:17;9.50;99.90
5055;DHT22;13829;48.990;8.346;2023-03-26T08:12:57;9.70;99.90
5055;DHT22;13829;48.990;8.346;2023-03-26T08:15:35;9.80;99.90
5055;DHT22;13829;48.990;8.346;2023-03-26T08:18:17;10.00;99.90
5055;DHT22;13829;48.990;8.346;2023-03-26T08:20:55;10.40;99.90
5055;DHT22;13829;48.990;8.346;2023-03-26T08:23:30;10.20;99.90
5055;DHT22;13829;48.990;8.346;2023-03-26T08:26:09;10.20;99.90
5055;DHT22;13829;48.990;8.346;2023-03-26T08:28:50;10.20;99.90
5055;DHT22;13829;48.990;8.346;2023-03-26T08:31:30;10.30;99.90
5055;DHT22;13829;48.990;8.346;2023-03-26T08:34:00;10.40;99.90
5055;DHT22;13829;48.990;8.346;2023-03-26T08:36:27;10.50;99.90
5055;DHT22;13829;48.990;8.346;2023-03-26T08:38:54;10.50;99.90
5055;DHT22;13829;48.990;8.346;2023-03-26T08:41:45;10.50;99.90
5055;DHT22;13829;48.990;8.346;2023-03-26T08:45:07;10.70;99.90
5055;DHT22;13829;48.990;8.346;2023-03-26T08:48:27;11.00;99.90
5055;DHT22;13829;48.990;8.346;2023-03-26T08:55:13;10.90;99.90
5055;DHT22;13829;48.990;8.346;2023-03-26T08:58:33;11.20;99.90
5055;DHT22;13829;48.990;8.346;2023-03-26T09:02:00;11.40;99.90
5055;DHT22;13829;48.990;8.346;2023-03-26T09:08:36;11.80;99.90
5055;DHT22;13829;48.990;8.346;2023-03-26T09:11:35;11.90;99.90
5055;DHT22;13829;48.990;8.346;2023-03-26T09:14:32;12.00;99.90
5055;DHT22;13829;48.990;8.346;2023-03-26T09:17:32;11.90;99.90
5055;DHT22;13829;48.990;8.346;2023-03-26T09:24:12;12.10;99.90
5055;DHT22;13829;48.990;8.346;2023-03-26T09:26:59;12.40;99.90
5055;DHT22;13829;48.990;8.346;2023-03-26T09:30:09;12.60;99.90
5055;DHT22;13829;48.990;8.346;2023-03-26T09:33:30;13.10;99.90
5055;DHT22;13829;48.990;8.346;2023-03-26T09:36:20;13.90;99.90
5055;DHT22;13829;48.990;8.346;2023-03-26T09:39:05;14.60;99.90
5055;DHT22;13829;48.990;8.346;2023-03-26T09:41:41;15.00;99.90
5055;DHT22;13829;48.990;8.346;2023-03-26T09:44:49;15.30;99.90
5055;DHT22;13829;48.990;8.346;2023-03-26T09:47:59;15.00;99.90
5055;DHT22;13829;48.990;8.346;2023-03-26T09:50:39;14.80;99.90
5055;DHT22;13829;48.990;8.346;2023-03-26T09:53:40;14.50;99.90
5055;DHT22;13829;48.990;8.346;2023-03-26T09:56:27;14.40;99.90
5055;DHT22;13829;48.990;8.346;2023-03-26T09:59:19;14.50;99.90
5055;DHT22;13829;48.990;8.346;2023-03-26T10:02:15;14.30;99.90
5055;DHT22;13829;48.990;8.346;2023-03-26T10:05:07;14.20;99.90
5055;DHT22;13829;48.990;8.346;2023-03-26T10:07:59;14.00;99.90
5055;DHT22;13829;48.990;8.346;2023-03-26T10:10:44;13.60;99.90
5055;DHT22;13829;48.990;8.346;2023-03-26T10:13:26;13.60;99.90
5055;DHT22;13829;48.990;8.346;2023-03-26T10:16:17;13.50;99.90
5055;DHT22;13829;48.990;8.346;2023-03-26T10:19:01;13.50;99.90
5055;DHT22;13829;48.990;8.346;2023-03-26T10:21:46;13.50;99.90
5055;DHT22;13829;48.990;8.346;2023-03-26T10:24:32;13.50;99.90
5055;DHT22;13829;48.990;8.346;2023-03-26T10:27:22;13.60;99.90
5055;DHT22;13829;48.990;8.346;2023-03-26T10:30:31;13.50;99.90
5055;DHT22;13829;48.990;8.346;2023-03-26T10:33:14;13.50;99.90
5055;DHT22;13829;48.990;8.346;2023-03-26T10:35:58;13.50;99.90
5055;DHT22;13829;48.990;8.346;2023-03-26T10:38:52;13.40;99.90
5055;DHT22;13829;48.990;8.346;2023-03-26T10:41:36;13.50;99.90
5055;DHT22;13829;48.990;8.346;2023-03-26T10:44:32;13.40;99.90
5055;DHT22;13829;48.990;8.346;2023-03-26T10:47:34;13.50;99.90
5055;DHT22;13829;48.990;8.346;2023-03-26T10:50:28;13.50;99.90
5055;DHT22;13829;48.990;8.346;2023-03-26T10:53:12;13.40;98.70
5055;DHT22;13829;48.990;8.346;2023-03-26T10:55:55;13.40;99.40
5055;DHT22;13829;48.990;8.346;2023-03-26T10:58:27;13.50;99.80
5055;DHT22;13829;48.990;8.346;2023-03-26T11:00:59;13.50;99.30
5055;DHT22;13829;48.990;8.346;2023-03-26T11:03:46;13.60;98.50
5055;DHT22;13829;48.990;8.346;2023-03-26T11:06:29;13.60;96.80
5055;DHT22;13829;48.990;8.346;2023-03-26T11:09:13;13.60;97.10
5055;DHT22;13829;48.990;8.346;2023-03-26T11:11:54;13.90;97.60
5055;DHT22;13829;48.990;8.346;2023-03-26T11:14:29;13.70;98.60
5055;DHT22;13829;48.990;8.346;2023-03-26T11:17:07;13.80;96.90
5055;DHT22;13829;48.990;8.346;2023-03-26T11:19:43;13.80;96.30
5055;DHT22;13829;48.990;8.346;2023-03-26T11:22:24;13.90;97.90
5055;DHT22;13829;48.990;8.346;2023-03-26T11:25:27;13.90;97.00
5055;DHT22;13829;48.990;8.346;2023-03-26T11:28:10;14.10;97.60
5055;DHT22;13829;48.990;8.346;2023-03-26T11:30:53;14.20;97.00
5055;DHT22;13829;48.990;8.346;2023-03-26T11:33:29;14.20;97.20
5055;DHT22;13829;48.990;8.346;2023-03-26T11:36:04;14.30;98.10
5055;DHT22;13829;48.990;8.346;2023-03-26T11:38:36;14.40;96.80
5055;DHT22;13829;48.990;8.346;2023-03-26T11:41:13;14.60;97.00
5055;DHT22;13829;48.990;8.346;2023-03-26T11:43:46;14.40;96.00
5055;DHT22;13829;48.990;8.346;2023-03-26T11:46:19;14.40;96.30
5055;DHT22;13829;48.990;8.346;2023-03-26T11:48:50;14.20;96.20
5055;DHT22;13829;48.990;8.346;2023-03-26T11:51:23;14.20;96.90
5055;DHT22;13829;48.990;8.346;2023-03-26T11:53:55;14.00;96.30
5055;DHT22;13829;48.990;8.346;2023-03-26T11:56:27;14.10;96.90
5055;DHT22;13829;48.990;8.346;2023-03-26T11:59:02;14.00;96.50
5055;DHT22;13829;48.990;8.346;2023-03-26T12:01:42;13.80;96.40
5055;DHT22;13829;48.990;8.346;2023-03-26T12:04:16;13.90;96.80
5055;DHT22;13829;48.990;8.346;2023-03-26T12:06:53;13.90;96.50
5055;DHT22;13829;48.990;8.346;2023-03-26T12:09:22;13.80;97.20
5055;DHT22;13829;48.990;8.346;2023-03-26T12:11:57;13.80;96.50
5055;DHT22;13829;48.990;8.346;2023-03-26T12:14:28;13.90;97.00
5055;DHT22;13829;48.990;8.346;2023-03-26T12:17:03;14.10;97.20
5055;DHT22;13829;48.990;8.346;2023-03-26T12:19:37;14.20;96.60
5055;DHT22;13829;48.990;8.346;2023-03-26T12:22:26;14.20;94.90
5055;DHT22;13829;48.990;8.346;2023-03-26T12:25:12;14.20;94.60
5055;DHT22;13829;48.990;8.346;2023-03-26T12:27:44;14.10;93.70
5055;DHT22;13829;48.990;8.346;2023-03-26T12:30:20;14.20;94.10
5055;DHT22;13829;48.990;8.346;2023-03-26T12:32:50;14.20;94.80
5055;DHT22;13829;48.990;8.346;2023-03-26T12:35:23;14.30;93.70
5055;DHT22;13829;48.990;8.346;2023-03-26T12:37:52;14.30;94.00
5055;DHT22;13829;48.990;8.346;2023-03-26T12:40:30;14.40;94.60
5055;DHT22;13829;48.990;8.346;2023-03-26T12:43:03;14.60;94.40
5055;DHT22;13829;48.990;8.346;2023-03-26T12:45:48;14.80;92.90
5055;DHT22;13829;48.990;8.346;2023-03-26T12:48:19;14.80;93.20
5055;DHT22;13829;48.990;8.346;2023-03-26T12:51:00;14.70;92.80
5055;DHT22;13829;48.990;8.346;2023-03-26T12:54:02;14.80;92.80
5055;DHT22;13829;48.990;8.346;2023-03-26T12:56:59;15.00;93.30
5055;DHT22;13829;48.990;8.346;2023-03-26T12:59:52;15.10;92.00
5055;DHT22;13829;48.990;8.346;2023-03-26T13:02:51;15.30;93.10
5055;DHT22;13829;48.990;8.346;2023-03-26T13:05:38;15.40;94.80
5055;DHT22;13829;48.990;8.346;2023-03-26T13:08:31;15.80;92.50
5055;DHT22;13829;48.990;8.346;2023-03-26T13:11:29;16.10;93.40
5055;DHT22;13829;48.990;8.346;2023-03-26T13:14:18;16.30;92.00
5055;DHT22;13829;48.990;8.346;2023-03-26T13:17:02;16.40;91.60
5055;DHT22;13829;48.990;8.346;2023-03-26T13:19:41;16.40;91.50
5055;DHT22;13829;48.990;8.346;2023-03-26T13:22:23;16.40;89.70
5055;DHT22;13829;48.990;8.346;2023-03-26T13:25:00;16.30;90.40
5055;DHT22;13829;48.990;8.346;2023-03-26T13:27:39;16.10;87.40
5055;DHT22;13829;48.990;8.346;2023-03-26T13:30:21;16.00;87.10
5055;DHT22;13829;48.990;8.346;2023-03-26T13:33:18;15.70;86.20
5055;DHT22;13829;48.990;8.346;2023-03-26T13:35:59;15.40;90.10
5055;DHT22;13829;48.990;8.346;2023-03-26T13:38:41;15.30;90.50
5055;DHT22;13829;48.990;8.346;2023-03-26T13:41:27;15.20;88.10
5055;DHT22;13829;48.990;8.346;2023-03-26T13:44:08;15.00;88.40
5055;DHT22;13829;48.990;8.346;2023-03-26T13:46:47;14.80;88.00
5055;DHT22;13829;48.990;8.346;2023-03-26T13:49:25;14.70;90.90
5055;DHT22;13829;48.990;8.346;2023-03-26T13:52:05;14.60;90.30
5055;DHT22;13829;48.990;8.346;2023-03-26T13:54:40;14.20;91.90
5055;DHT22;13829;48.990;8.346;2023-03-26T13:57:15;13.80;93.80
5055;DHT22;13829;48.990;8.346;2023-03-26T13:59:52;13.60;97.30
5055;DHT22;13829;48.990;8.346;2023-03-26T14:02:26;13.10;99.90
5055;DHT22;13829;48.990;8.346;2023-03-26T14:05:04;12.50;99.90
5055;DHT22;13829;48.990;8.346;2023-03-26T14:07:42;12.10;99.90
5055;DHT22;13829;48.990;8.346;2023-03-26T14:10:15;11.70;99.90
5055;DHT22;13829;48.990;8.346;2023-03-26T14:12:53;11.40;99.90
5055;DHT22;13829;48.990;8.346;2023-03-26T14:15:27;11.20;99.90
5055;DHT22;13829;48.990;8.346;2023-03-26T14:18:03;11.00;99.90
5055;DHT22;13829;48.990;8.346;2023-03-26T14:21:08;10.80;99.90
5055;DHT22;13829;48.990;8.346;2023-03-26T14:24:22;10.70;99.90
5055;DHT22;13829;48.990;8.346;2023-03-26T14:27:10;10.50;99.90
5055;DHT22;13829;48.990;8.346;2023-03-26T14:33:21;10.30;99.90
5055;DHT22;13829;48.990;8.346;2023-03-26T14:36:09;10.10;99.90
5055;DHT22;13829;48.990;8.346;2023-03-26T14:39:09;10.10;99.90
5055;DHT22;13829;48.990;8.346;2023-03-26T14:41:51;10.00;99.90
5055;DHT22;13829;48.990;8.346;2023-03-26T14:48:21;10.30;99.90
5055;DHT22;13829;48.990;8.346;2023-03-26T14:51:09;10.40;99.90
5055;DHT22;13829;48.990;8.346;2023-03-26T14:53:50;10.60;99.90
5055;DHT22;13829;48.990;8.346;2023-03-26T14:56:56;10.60;99.90
5055;DHT22;13829;48.990;8.346;2023-03-26T15:00:38;10.60;99.90
5055;DHT22;13829;48.990;8.346;2023-03-26T15:04:19;10.60;99.90
5055;DHT22;13829;48.990;8.346;2023-03-26T15:07:37;10.60;99.90
5055;DHT22;13829;48.990;8.346;2023-03-26T15:11:04;10.50;99.90
5055;DHT22;13829;48.990;8.346;2023-03-26T15:17:32;10.70;99.90
5055;DHT22;13829;48.990;8.346;2023-03-26T15:21:04;10.70;99.90
5055;DHT22;13829;48.990;8.346;2023-03-26T15:24:16;10.80;99.90
5055;DHT22;13829;48.990;8.346;2023-03-26T15:27:23;10.70;99.90
5055;DHT22;13829;48.990;8.346;2023-03-26T15:30:34;10.60;99.90
5055;DHT22;13829;48.990;8.346;2023-03-26T15:37:01;10.60;99.90
5055;DHT22;13829;48.990;8.346;2023-03-26T15:40:01;10.60;99.90
5055;DHT22;13829;48.990;8.346;2023-03-26T15:42:57;10.70;99.90
5055;DHT22;13829;48.990;8.346;2023-03-26T15:45:34;10.70;99.90
5055;DHT22;13829;48.990;8.346;2023-03-26T15:48:26;10.60;99.90
5055;DHT22;13829;48.990;8.346;2023-03-26T15:54:01;10.60;99.90
5055;DHT22;13829;48.990;8.346;2023-03-26T15:57:06;10.70;99.90
5055;DHT22;13829;48.990;8.346;2023-03-26T15:59:50;10.60;99.90
5055;DHT22;13829;48.990;8.346;2023-03-26T16:02:29;10.60;99.90
5055;DHT22;13829;48.990;8.346;2023-03-26T16:05:23;10.60;99.90
5055;DHT22;13829;48.990;8.346;2023-03-26T16:08:05;10.60;99.90
5055;DHT22;13829;48.990;8.346;2023-03-26T16:10:47;10.60;99.90
5055;DHT22;13829;48.990;8.346;2023-03-26T16:13:31;10.40;99.90
5055;DHT22;13829;48.990;8.346;2023-03-26T16:16:20;10.30;99.90
5055;DHT22;13829;48.990;8.346;2023-03-26T16:18:54;10.20;99.90
5055;DHT22;13829;48.990;8.346;2023-03-26T16:21:52;10.20;99.90
5055;DHT22;13829;48.990;8.346;2023-03-26T16:24:28;10.30;99.90
5055;DHT22;13829;48.990;8.346;2023-03-26T16:30:28;10.20;99.90
5055;DHT22;13829;48.990;8.346;2023-03-26T16:33:08;10.20;99.90
5055;DHT22;13829;48.990;8.346;2023-03-26T16:38:46;10.20;99.90
5055;DHT22;13829;48.990;8.346;2023-03-26T16:41:20;10.20;99.90
5055;DHT22;13829;48.990;8.346;2023-03-26T16:44:09;10.30;99.90
5055;DHT22;13829;48.990;8.346;2023-03-26T16:46:51;10.30;99.90
5055;DHT22;13829;48.990;8.346;2023-03-26T16:49:34;10.40;99.90
5055;DHT22;13829;48.990;8.346;2023-03-26T16:52:21;10.30;99.90
5055;DHT22;13829;48.990;8.346;2023-03-26T16:55:02;10.40;99.90
5055;DHT22;13829;48.990;8.346;2023-03-26T16:57:44;10.40;99.90
5055;DHT22;13829;48.990;8.346;2023-03-26T17:00:33;10.30;99.90
5055;DHT22;13829;48.990;8.346;2023-03-26T17:03:22;10.30;99.90
5055;DHT22;13829;48.990;8.346;2023-03-26T17:06:04;10.30;99.90
5055;DHT22;13829;48.990;8.346;2023-03-26T17:08:55;10.30;99.90
5055;DHT22;13829;48.990;8.346;2023-03-26T17:11:36;10.30;99.90
5055;DHT22;13829;48.990;8.346;2023-03-26T17:14:24;10.30;99.90
5055;DHT22;13829;48.990;8.346;2023-03-26T17:17:17;10.30;99.90
5055;DHT22;13829;48.990;8.346;2023-03-26T17:19:59;10.30;99.90
5055;DHT22;13829;48.990;8.346;2023-03-26T17:22:38;10.20;99.90
5055;DHT22;13829;48.990;8.346;2023-03-26T17:25:20;10.10;99.90
5055;DHT22;13829;48.990;8.346;2023-03-26T17:27:58;10.20;99.90
5055;DHT22;13829;48.990;8.346;2023-03-26T17:30:59;10.20;99.90
5055;DHT22;13829;48.990;8.346;2023-03-26T17:33:32;10.20;99.90
5055;DHT22;13829;48.990;8.346;2023-03-26T17:36:29;10.20;99.90
5055;DHT22;13829;48.990;8.346;2023-03-26T17:43:07;10.00;99.90